WMKC/KBR METAR and TAF weather

Enter ICAO airport designator
Station Type Date Time Source
WMKC METAR 2022/06/27 17:00 UTC NOAA

WMKC 271700Z 00000KT 9999 FEW020 28/26 Q1009


Station Type Date Time Source
WMKC Decoded METAR 2022/06/27 17:00 UTC NOAA

Kota Bharu, Malaysia (WMKC) 06-10N 102-17E 5M
Jun 27, 2022 - 01:00 PM EDT / 2022.06.27 1700 UTC
Wind: Calm:0
Visibility: greater than 7 mile(s):0
Sky conditions: mostly clear
Temperature: 82 F (28 C)
Dew Point: 78 F (26 C)
Relative Humidity: 88%
Pressure (altimeter): 29.80 in. Hg (1009 hPa)
ob: WMKC 271700Z 00000KT 9999 FEW020 28/26 Q1009
cycle: 17

Station Type Date Time Source
WMKC TAF 2022/06/27 18:00 UTC NOAA

TAF WMKC 271700Z 2718/2818 VRB03KT 9999 FEW020
BECMG 2804/2806 08006KT FEW018

Example: see airport list